sensor_id;sensor_type;location;lat;lon;timestamp;P1;durP1;ratioP1;P2;durP2;ratioP2
50563;SDS011;36514;52.590;21.448;2023-05-10T00:02:15;87.55;;;40.95;;
50563;SDS011;36514;52.590;21.448;2023-05-10T00:12:13;60.66;;;30.09;;
50563;SDS011;36514;52.590;21.448;2023-05-10T04:12:25;1172.77;;;720.75;;
50563;SDS011;36514;52.590;21.448;2023-05-10T04:22:22;1316.02;;;884.81;;
50563;SDS011;36514;52.590;21.448;2023-05-10T04:32:20;629.85;;;576.51;;
50563;SDS011;36514;52.590;21.448;2023-05-10T04:42:17;479.80;;;448.11;;
50563;SDS011;36514;52.590;21.448;2023-05-10T04:52:14;251.69;;;236.95;;
50563;SDS011;36514;52.590;21.448;2023-05-10T05:02:12;394.10;;;369.37;;
50563;SDS011;36514;52.590;21.448;2023-05-10T05:12:04;550.13;;;511.50;;
50563;SDS011;36514;52.590;21.448;2023-05-10T05:22:03;617.65;;;578.76;;
50563;SDS011;36514;52.590;21.448;2023-05-10T05:32:01;525.20;;;492.80;;
50563;SDS011;36514;52.590;21.448;2023-05-10T05:41:58;423.05;;;399.88;;
50563;SDS011;36514;52.590;21.448;2023-05-10T05:51:59;506.39;;;475.95;;
50563;SDS011;36514;52.590;21.448;2023-05-10T06:01:57;748.95;;;696.74;;
50563;SDS011;36514;52.590;21.448;2023-05-10T06:11:56;694.13;;;647.94;;
50563;SDS011;36514;52.590;21.448;2023-05-10T06:21:54;628.47;;;582.84;;
50563;SDS011;36514;52.590;21.448;2023-05-10T06:31:52;479.24;;;451.34;;
50563;SDS011;36514;52.590;21.448;2023-05-10T06:41:50;603.28;;;563.89;;
50563;SDS011;36514;52.590;21.448;2023-05-10T06:51:48;399.89;;;375.95;;
50563;SDS011;36514;52.590;21.448;2023-05-10T07:01:47;498.71;;;469.80;;
50563;SDS011;36514;52.590;21.448;2023-05-10T07:12:14;395.92;;;371.88;;
50563;SDS011;36514;52.590;21.448;2023-05-10T07:22:25;558.50;;;523.96;;
50563;SDS011;36514;52.590;21.448;2023-05-10T07:32:29;651.35;;;613.49;;
50563;SDS011;36514;52.590;21.448;2023-05-10T07:42:31;803.41;;;747.87;;
50563;SDS011;36514;52.590;21.448;2023-05-10T07:52:33;945.37;;;837.80;;
50563;SDS011;36514;52.590;21.448;2023-05-10T08:02:35;1041.47;;;915.15;;
50563;SDS011;36514;52.590;21.448;2023-05-10T08:12:35;1015.32;;;870.93;;
50563;SDS011;36514;52.590;21.448;2023-05-10T08:22:34;963.95;;;885.03;;
50563;SDS011;36514;52.590;21.448;2023-05-10T08:32:35;931.95;;;858.04;;
50563;SDS011;36514;52.590;21.448;2023-05-10T08:42:39;956.17;;;875.14;;
50563;SDS011;36514;52.590;21.448;2023-05-10T08:52:41;964.22;;;881.53;;
50563;SDS011;36514;52.590;21.448;2023-05-10T09:02:41;911.06;;;833.35;;
50563;SDS011;36514;52.590;21.448;2023-05-10T09:12:49;954.92;;;864.70;;
50563;SDS011;36514;52.590;21.448;2023-05-10T09:22:48;916.67;;;842.81;;
50563;SDS011;36514;52.590;21.448;2023-05-10T09:32:51;851.23;;;788.12;;
50563;SDS011;36514;52.590;21.448;2023-05-10T09:43:02;794.72;;;739.28;;
50563;SDS011;36514;52.590;21.448;2023-05-10T09:53:03;686.81;;;641.59;;
50563;SDS011;36514;52.590;21.448;2023-05-10T10:03:04;945.08;;;863.22;;
50563;SDS011;36514;52.590;21.448;2023-05-10T10:13:06;808.85;;;748.91;;
50563;SDS011;36514;52.590;21.448;2023-05-10T10:23:05;811.26;;;753.62;;
50563;SDS011;36514;52.590;21.448;2023-05-10T10:53:22;874.52;;;795.93;;
50563;SDS011;36514;52.590;21.448;2023-05-10T11:03:19;830.65;;;767.13;;
50563;SDS011;36514;52.590;21.448;2023-05-10T11:23:30;894.05;;;815.34;;
50563;SDS011;36514;52.590;21.448;2023-05-10T11:33:29;827.96;;;753.64;;
50563;SDS011;36514;52.590;21.448;2023-05-10T11:43:27;1107.62;;;844.37;;
50563;SDS011;36514;52.590;21.448;2023-05-10T11:53:29;740.14;;;687.36;;
50563;SDS011;36514;52.590;21.448;2023-05-10T12:03:30;764.75;;;708.80;;
50563;SDS011;36514;52.590;21.448;2023-05-10T12:13:31;742.43;;;685.71;;
50563;SDS011;36514;52.590;21.448;2023-05-10T12:23:30;823.74;;;758.44;;
50563;SDS011;36514;52.590;21.448;2023-05-10T12:33:26;645.19;;;602.05;;
50563;SDS011;36514;52.590;21.448;2023-05-10T12:43:19;663.10;;;616.17;;
50563;SDS011;36514;52.590;21.448;2023-05-10T12:53:18;874.54;;;789.77;;
50563;SDS011;36514;52.590;21.448;2023-05-10T13:03:15;913.77;;;800.39;;
50563;SDS011;36514;52.590;21.448;2023-05-10T13:13:13;1004.33;;;900.32;;
50563;SDS011;36514;52.590;21.448;2023-05-10T13:23:10;784.27;;;728.37;;
50563;SDS011;36514;52.590;21.448;2023-05-10T13:33:09;758.93;;;704.17;;
50563;SDS011;36514;52.590;21.448;2023-05-10T13:43:06;723.01;;;672.69;;
50563;SDS011;36514;52.590;21.448;2023-05-10T13:53:02;699.99;;;650.46;;
50563;SDS011;36514;52.590;21.448;2023-05-10T14:02:58;778.26;;;719.55;;
50563;SDS011;36514;52.590;21.448;2023-05-10T14:12:55;789.51;;;734.03;;
50563;SDS011;36514;52.590;21.448;2023-05-10T14:22:53;771.33;;;704.20;;
50563;SDS011;36514;52.590;21.448;2023-05-10T14:32:48;721.55;;;667.52;;
50563;SDS011;36514;52.590;21.448;2023-05-10T14:42:46;914.21;;;834.27;;
50563;SDS011;36514;52.590;21.448;2023-05-10T14:52:42;766.99;;;708.80;;
50563;SDS011;36514;52.590;21.448;2023-05-10T15:02:38;742.55;;;689.28;;
50563;SDS011;36514;52.590;21.448;2023-05-10T15:12:37;857.27;;;791.26;;
50563;SDS011;36514;52.590;21.448;2023-05-10T15:22:35;714.53;;;660.10;;
50563;SDS011;36514;52.590;21.448;2023-05-10T15:32:29;730.38;;;679.44;;
50563;SDS011;36514;52.590;21.448;2023-05-10T15:42:22;745.74;;;691.83;;
50563;SDS011;36514;52.590;21.448;2023-05-10T15:52:19;840.97;;;771.96;;
50563;SDS011;36514;52.590;21.448;2023-05-10T16:02:13;1332.17;;;933.69;;
50563;SDS011;36514;52.590;21.448;2023-05-10T16:12:07;773.54;;;717.14;;
50563;SDS011;36514;52.590;21.448;2023-05-10T16:22:02;949.76;;;845.45;;
50563;SDS011;36514;52.590;21.448;2023-05-10T16:31:58;762.74;;;702.57;;
50563;SDS011;36514;52.590;21.448;2023-05-10T16:41:53;796.49;;;740.07;;
50563;SDS011;36514;52.590;21.448;2023-05-10T16:51:46;673.94;;;628.45;;
50563;SDS011;36514;52.590;21.448;2023-05-10T17:01:36;705.37;;;657.63;;
50563;SDS011;36514;52.590;21.448;2023-05-10T17:11:30;642.77;;;599.67;;
50563;SDS011;36514;52.590;21.448;2023-05-10T17:21:25;542.34;;;507.14;;
50563;SDS011;36514;52.590;21.448;2023-05-10T17:31:21;469.46;;;440.26;;
50563;SDS011;36514;52.590;21.448;2023-05-10T17:41:17;568.99;;;532.63;;
50563;SDS011;36514;52.590;21.448;2023-05-10T17:51:13;529.56;;;496.10;;
50563;SDS011;36514;52.590;21.448;2023-05-10T18:01:10;483.32;;;453.54;;
50563;SDS011;36514;52.590;21.448;2023-05-10T18:11:06;496.62;;;464.35;;
50563;SDS011;36514;52.590;21.448;2023-05-10T18:21:03;653.15;;;604.97;;
50563;SDS011;36514;52.590;21.448;2023-05-10T18:30:59;668.32;;;619.10;;
50563;SDS011;36514;52.590;21.448;2023-05-10T18:40:55;662.94;;;613.99;;
50563;SDS011;36514;52.590;21.448;2023-05-10T18:50:50;851.53;;;777.60;;
50563;SDS011;36514;52.590;21.448;2023-05-10T19:00:47;1057.67;;;825.54;;
50563;SDS011;36514;52.590;21.448;2023-05-10T19:10:43;1426.91;;;858.25;;
50563;SDS011;36514;52.590;21.448;2023-05-10T19:20:40;1416.79;;;844.31;;
50563;SDS011;36514;52.590;21.448;2023-05-10T19:30:36;1353.43;;;868.70;;
50563;SDS011;36514;52.590;21.448;2023-05-10T19:40:35;1111.25;;;799.22;;
50563;SDS011;36514;52.590;21.448;2023-05-10T19:50:31;1062.92;;;739.83;;
50563;SDS011;36514;52.590;21.448;2023-05-10T20:00:27;725.97;;;555.00;;
50563;SDS011;36514;52.590;21.448;2023-05-10T20:10:24;751.08;;;541.73;;
50563;SDS011;36514;52.590;21.448;2023-05-10T20:20:20;893.07;;;630.83;;
50563;SDS011;36514;52.590;21.448;2023-05-10T20:30:17;791.64;;;591.55;;
50563;SDS011;36514;52.590;21.448;2023-05-10T20:40:13;244.03;;;218.29;;
50563;SDS011;36514;52.590;21.448;2023-05-10T20:50:09;219.03;;;171.19;;
50563;SDS011;36514;52.590;21.448;2023-05-10T21:00:10;112.82;;;69.16;;
50563;SDS011;36514;52.590;21.448;2023-05-10T21:10:06;84.10;;;68.13;;
50563;SDS011;36514;52.590;21.448;2023-05-10T21:20:03;100.05;;;68.29;;
50563;SDS011;36514;52.590;21.448;2023-05-10T21:29:59;90.75;;;55.47;;
50563;SDS011;36514;52.590;21.448;2023-05-10T21:39:56;323.28;;;257.12;;
50563;SDS011;36514;52.590;21.448;2023-05-10T21:49:52;200.38;;;178.38;;
50563;SDS011;36514;52.590;21.448;2023-05-10T21:59:48;104.57;;;80.14;;
50563;SDS011;36514;52.590;21.448;2023-05-10T22:09:44;128.56;;;93.39;;
50563;SDS011;36514;52.590;21.448;2023-05-10T22:19:40;244.55;;;188.09;;
50563;SDS011;36514;52.590;21.448;2023-05-10T22:29:36;92.39;;;59.19;;
50563;SDS011;36514;52.590;21.448;2023-05-10T22:39:33;49.05;;;38.77;;
50563;SDS011;36514;52.590;21.448;2023-05-10T22:49:29;81.61;;;28.38;;
50563;SDS011;36514;52.590;21.448;2023-05-10T22:59:26;77.23;;;36.65;;
50563;SDS011;36514;52.590;21.448;2023-05-10T23:09:22;102.28;;;73.22;;
50563;SDS011;36514;52.590;21.448;2023-05-10T23:19:18;59.89;;;46.72;;
50563;SDS011;36514;52.590;21.448;2023-05-10T23:29:14;120.70;;;52.58;;
50563;SDS011;36514;52.590;21.448;2023-05-10T23:39:10;54.26;;;37.94;;
50563;SDS011;36514;52.590;21.448;2023-05-10T23:49:07;98.76;;;50.30;;
50563;SDS011;36514;52.590;21.448;2023-05-10T23:59:01;73.48;;;41.27;;
